Time;durP1;ratioP1;P1;durP2;ratioP2;P2;SDS_P1;SDS_P2;PMS_P1;PMS_P2;Temp;Humidity;BMP_temperature;BMP_pressure;BME280_temperature;BME280_humidity;BME280_pressure;Samples;Min_cycle;Max_cycle;Signal;HPM_P1;HPM_P2
2022/09/06 00:00:35;;;;;;;0.38;0.38;;;22.90;97.90;;;;;;5003917;28;20509;-71
2022/09/06 00:03:01;;;;;;;0.10;0.10;;;22.90;97.80;;;;;;5001883;28;20057;-71
2022/09/06 00:05:27;;;;;;;0.00;0.00;;;22.90;97.70;;;;;;4990291;28;20054;-71
2022/09/06 00:07:53;;;;;;;0.10;0.10;;;22.90;97.70;;;;;;4988126;28;20042;-71
2022/09/06 00:10:19;;;;;;;0.05;0.05;;;22.90;97.90;;;;;;4990673;28;20058;-72
2022/09/06 00:12:44;;;;;;;1.10;0.17;;;22.90;97.90;;;;;;4990819;28;20050;-72
2022/09/06 00:15:10;;;;;;;0.00;0.00;;;22.90;97.70;;;;;;4992747;28;20161;-71
2022/09/06 00:17:36;;;;;;;1.70;1.60;;;22.90;97.80;;;;;;4993958;28;20053;-71
2022/09/06 00:20:03;;;;;;;0.13;0.13;;;22.90;97.60;;;;;;4993383;28;20117;-71
2022/09/06 00:22:29;;;;;;;0.00;0.00;;;22.80;97.80;;;;;;5011107;28;20069;-71
2022/09/06 00:24:55;;;;;;;0.05;0.05;;;22.80;97.70;;;;;;5011406;28;20081;-71
2022/09/06 00:27:21;;;;;;;0.00;0.00;;;22.90;97.60;;;;;;5010862;28;20069;-72
2022/09/06 00:29:46;;;;;;;0.30;0.30;;;22.80;97.70;;;;;;5013435;28;20045;-72
2022/09/06 00:32:12;;;;;;;0.15;0.15;;;22.80;97.90;;;;;;5009031;28;20116;-72
2022/09/06 00:34:37;;;;;;;0.20;0.20;;;22.80;97.90;;;;;;4994051;28;20050;-72
2022/09/06 00:37:03;;;;;;;0.00;0.00;;;22.80;97.70;;;;;;5012841;28;20084;-71
2022/09/06 00:39:28;;;;;;;0.00;0.00;;;22.80;97.60;;;;;;5013552;28;20038;-71
2022/09/06 00:41:54;;;;;;;0.08;0.08;;;22.70;97.70;;;;;;5011036;28;20054;-72
2022/09/06 00:44:19;;;;;;;0.00;0.00;;;22.70;97.70;;;;;;4997825;28;20167;-71
2022/09/06 00:46:48;;;;;;;0.00;0.00;;;22.70;97.80;;;;;;4992740;28;20038;-72
2022/09/06 00:49:23;;;;;;;0.00;0.00;;;22.70;97.70;;;;;;4993436;28;20054;-71
2022/09/06 00:51:58;;;;;;;0.40;0.40;;;22.70;98.00;;;;;;4992428;28;20502;-71
2022/09/06 00:54:23;;;;;;;0.20;0.20;;;22.80;97.60;;;;;;5012197;28;20132;-71
2022/09/06 00:56:49;;;;;;;0.10;0.10;;;22.70;97.60;;;;;;5008199;28;20129;-71
2022/09/06 00:59:15;;;;;;;0.00;0.00;;;22.60;97.60;;;;;;4991429;28;20054;-71
2022/09/06 01:01:41;;;;;;;0.00;0.00;;;22.70;97.50;;;;;;4996113;28;20050;-71
2022/09/06 01:04:07;;;;;;;0.00;0.00;;;22.60;97.70;;;;;;5010264;28;20045;-72
2022/09/06 01:07:11;;;;;;;0.17;0.17;;;22.60;97.70;;;;;;5009157;28;20150;-71
2022/09/06 01:09:46;;;;;;;0.10;0.10;;;22.60;97.60;;;;;;5011099;28;20064;-71
2022/09/06 01:12:25;;;;;;;0.22;0.22;;;22.60;97.70;;;;;;5012190;28;20045;-71
2022/09/06 01:15:02;;;;;;;0.00;0.00;;;22.60;97.70;;;;;;5011299;28;20042;-71
2022/09/06 01:17:27;;;;;;;0.75;0.75;;;22.50;97.70;;;;;;4998401;28;20052;-71
2022/09/06 01:20:35;;;;;;;0.32;0.30;;;22.60;97.70;;;;;;4991145;28;20943;-71
2022/09/06 01:23:33;;;;;;;0.20;0.20;;;22.50;97.60;;;;;;4990026;28;20122;-71
2022/09/06 01:26:36;;;;;;;0.10;0.10;;;22.40;97.70;;;;;;5000248;28;20053;-71
2022/09/06 01:29:11;;;;;;;0.32;0.32;;;22.40;97.80;;;;;;5011010;28;20437;-71
2022/09/06 01:31:43;;;;;;;0.65;0.40;;;22.40;97.90;;;;;;5010584;28;20053;-71
2022/09/06 01:34:27;;;;;;;0.47;0.47;;;22.40;97.70;;;;;;5001396;28;20054;-71
2022/09/06 01:37:02;;;;;;;0.45;0.45;;;22.30;97.60;;;;;;4991814;28;20061;-71
2022/09/06 01:39:35;;;;;;;0.00;0.00;;;22.30;97.70;;;;;;4993881;28;20080;-71
2022/09/06 01:42:09;;;;;;;0.45;0.45;;;22.30;97.80;;;;;;5009599;28;20049;-71
2022/09/06 01:44:37;;;;;;;0.10;0.10;;;22.30;97.80;;;;;;5011155;28;20125;-72
2022/09/06 01:47:20;;;;;;;0.22;0.22;;;22.20;97.70;;;;;;5011831;28;20046;-71
2022/09/06 01:50:10;;;;;;;0.32;0.22;;;22.20;97.70;;;;;;5010653;28;20550;-71
2022/09/06 01:53:33;;;;;;;0.70;0.10;;;22.20;97.80;;;;;;5007902;28;20041;-71
2022/09/06 01:56:07;;;;;;;3.53;0.38;;;22.20;97.90;;;;;;4987805;28;20054;-71
2022/09/06 01:59:00;;;;;;;0.60;0.30;;;22.20;98.10;;;;;;4971437;28;20486;-71
2022/09/06 02:01:34;;;;;;;0.20;0.20;;;22.10;98.00;;;;;;4986652;28;20057;-71
2022/09/06 02:04:07;;;;;;;0.00;0.00;;;22.10;98.00;;;;;;5010921;28;20451;-71
2022/09/06 02:06:40;;;;;;;0.25;0.20;;;22.10;98.10;;;;;;5010218;28;20450;-71
2022/09/06 02:09:10;;;;;;;0.10;0.10;;;22.10;98.00;;;;;;5005147;28;20042;-71
2022/09/06 02:11:48;;;;;;;1.08;0.95;;;22.10;98.20;;;;;;4991029;28;20047;-71
2022/09/06 02:14:37;;;;;;;0.20;0.20;;;22.10;98.10;;;;;;4991451;28;20053;-71
2022/09/06 02:17:05;;;;;;;0.10;0.10;;;22.10;98.20;;;;;;4989018;28;20060;-71
2022/09/06 02:19:37;;;;;;;0.80;0.50;;;22.00;98.30;;;;;;4991233;28;20054;-71
2022/09/06 02:22:08;;;;;;;0.10;0.10;;;22.00;98.10;;;;;;4990325;28;20486;-71
2022/09/06 02:24:36;;;;;;;0.20;0.20;;;21.90;98.20;;;;;;4989994;28;20681;-71
2022/09/06 02:27:02;;;;;;;0.40;0.30;;;21.90;98.20;;;;;;4990832;28;20042;-71
2022/09/06 02:29:28;;;;;;;0.00;0.00;;;21.90;98.30;;;;;;4990160;28;20042;-71
2022/09/06 02:32:04;;;;;;;0.35;0.35;;;21.80;98.30;;;;;;4994875;28;20049;-71
2022/09/06 02:34:30;;;;;;;0.00;0.00;;;21.80;98.00;;;;;;5008305;28;20056;-71
2022/09/06 02:36:56;;;;;;;0.20;0.20;;;21.90;98.10;;;;;;5009691;28;20050;-71
2022/09/06 02:39:21;;;;;;;0.00;0.00;;;21.90;97.90;;;;;;5009155;28;20485;-71
2022/09/06 02:41:47;;;;;;;0.22;0.22;;;21.90;98.00;;;;;;4989048;28;20475;-71
2022/09/06 02:44:13;;;;;;;0.08;0.08;;;21.80;97.90;;;;;;4991274;28;20895;-71
2022/09/06 02:46:39;;;;;;;1.85;0.73;;;21.80;98.10;;;;;;4988795;28;20053;-71
2022/09/06 02:49:04;;;;;;;0.32;0.32;;;21.70;98.00;;;;;;4991020;28;20053;-71
2022/09/06 02:51:34;;;;;;;1.20;0.45;;;21.70;98.10;;;;;;4990264;28;20069;-71
2022/09/06 02:54:00;;;;;;;0.20;0.20;;;21.80;98.10;;;;;;4992180;28;20087;-71
2022/09/06 02:56:25;;;;;;;0.38;0.38;;;21.70;98.20;;;;;;4989564;28;20477;-71
2022/09/06 02:58:51;;;;;;;1.10;0.15;;;21.60;98.20;;;;;;4991179;28;20394;-71
2022/09/06 03:01:16;;;;;;;0.13;0.13;;;21.60;98.20;;;;;;5002734;28;20096;-71
2022/09/06 03:03:42;;;;;;;0.00;0.00;;;21.60;98.40;;;;;;5008541;28;20051;-71
2022/09/06 03:06:07;;;;;;;1.25;0.70;;;21.60;98.30;;;;;;5008738;28;20049;-71
2022/09/06 03:08:35;;;;;;;0.08;0.05;;;21.50;98.40;;;;;;5009991;28;20117;-71
2022/09/06 03:11:01;;;;;;;1.55;1.38;;;21.50;98.40;;;;;;5007931;28;20056;-71
2022/09/06 03:13:26;;;;;;;1.05;0.57;;;21.50;98.50;;;;;;5010697;28;20038;-71
2022/09/06 03:15:55;;;;;;;0.00;0.00;;;21.50;98.40;;;;;;5006188;28;20050;-71
2022/09/06 03:18:21;;;;;;;0.10;0.10;;;21.40;98.50;;;;;;5008823;28;20060;-71
2022/09/06 03:20:48;;;;;;;0.65;0.43;;;21.40;98.50;;;;;;5010446;28;20405;-71
2022/09/06 03:23:14;;;;;;;0.10;0.10;;;21.40;98.60;;;;;;5006993;28;20038;-71
2022/09/06 03:25:41;;;;;;;0.20;0.20;;;21.40;98.60;;;;;;5010419;28;20046;-71
2022/09/06 03:28:07;;;;;;;0.10;0.10;;;21.30;98.80;;;;;;5010272;28;20054;-71
2022/09/06 03:30:32;;;;;;;0.05;0.05;;;21.40;98.60;;;;;;5007679;28;20053;-71
2022/09/06 03:32:58;;;;;;;2.17;0.65;;;21.30;98.80;;;;;;4995159;28;20092;-71
2022/09/06 03:35:24;;;;;;;0.25;0.25;;;21.30;98.80;;;;;;4990716;28;20466;-71
2022/09/06 03:37:49;;;;;;;0.55;0.55;;;21.30;98.70;;;;;;4989824;28;20058;-71
2022/09/06 03:40:15;;;;;;;0.20;0.20;;;21.30;98.80;;;;;;4992221;28;20487;-71
2022/09/06 03:42:40;;;;;;;0.13;0.13;;;21.30;98.80;;;;;;4990039;28;20046;-71
2022/09/06 03:45:07;;;;;;;0.10;0.10;;;21.20;98.90;;;;;;4990575;28;20474;-71
2022/09/06 03:47:32;;;;;;;0.47;0.30;;;21.30;99.00;;;;;;5006172;28;20117;-72
2022/09/06 03:49:58;;;;;;;0.08;0.08;;;21.20;99.20;;;;;;5012767;28;20072;-71
2022/09/06 03:52:23;;;;;;;0.80;0.45;;;21.10;99.30;;;;;;5014082;28;20081;-71
2022/09/06 03:54:49;;;;;;;0.93;0.68;;;21.20;99.10;;;;;;5013674;28;20106;-71
2022/09/06 03:57:14;;;;;;;0.17;0.17;;;21.10;99.10;;;;;;4997302;28;20422;-71
2022/09/06 03:59:40;;;;;;;0.20;0.20;;;21.00;99.30;;;;;;4992486;28;20111;-71
2022/09/06 04:02:06;;;;;;;0.25;0.25;;;21.00;99.10;;;;;;4993294;28;20038;-71
2022/09/06 04:04:32;;;;;;;0.00;0.00;;;21.00;99.40;;;;;;4993741;28;20317;-71
2022/09/06 04:06:57;;;;;;;0.17;0.17;;;21.00;99.30;;;;;;4994201;28;20402;-71
2022/09/06 04:09:23;;;;;;;0.17;0.17;;;21.00;99.30;;;;;;4994846;28;20042;-71
2022/09/06 04:11:49;;;;;;;0.25;0.22;;;21.00;99.30;;;;;;5000319;28;20061;-71
2022/09/06 04:14:14;;;;;;;3.70;1.27;;;21.00;99.30;;;;;;4994183;28;20125;-71
2022/09/06 04:16:40;;;;;;;0.35;0.17;;;21.00;99.90;;;;;;4994181;28;20039;-71
2022/09/06 04:19:05;;;;;;;0.75;0.50;;;20.90;99.90;;;;;;4993158;28;20077;-71
2022/09/06 04:21:31;;;;;;;0.00;0.00;;;20.90;99.90;;;;;;4992633;28;20053;-71
2022/09/06 04:23:57;;;;;;;1.35;1.13;;;20.90;99.90;;;;;;4993644;28;20497;-71
2022/09/06 04:26:22;;;;;;;0.10;0.10;;;20.90;99.90;;;;;;4993375;28;20043;-71
2022/09/06 04:28:48;;;;;;;0.52;0.30;;;20.70;99.90;;;;;;4992444;28;20050;-71
2022/09/06 04:31:13;;;;;;;0.10;0.10;;;20.80;99.90;;;;;;4993611;28;20050;-71
2022/09/06 04:33:39;;;;;;;0.20;0.20;;;20.60;99.90;;;;;;5009737;28;20042;-71
2022/09/06 04:36:07;;;;;;;0.20;0.20;;;20.60;99.90;;;;;;5012628;28;20046;-72
2022/09/06 04:38:42;;;;;;;0.15;0.15;;;20.60;99.90;;;;;;5012035;28;20042;-72
2022/09/06 04:41:10;;;;;;;0.85;0.85;;;20.50;99.90;;;;;;5012225;28;20046;-72
2022/09/06 04:43:35;;;;;;;0.32;0.32;;;20.40;99.90;;;;;;5010519;28;20546;-72
2022/09/06 04:46:07;;;;;;;0.00;0.00;;;20.30;99.90;;;;;;5012121;28;20124;-72
2022/09/06 04:48:33;;;;;;;0.40;0.40;;;20.30;99.90;;;;;;5012025;28;20120;-72
2022/09/06 04:50:59;;;;;;;0.32;0.32;;;20.30;99.90;;;;;;5010676;28;20509;-72
2022/09/06 04:53:24;;;;;;;1.17;0.35;;;20.20;99.90;;;;;;5012566;28;20048;-72
2022/09/06 04:55:50;;;;;;;0.28;0.28;;;20.30;99.90;;;;;;5010863;28;20112;-72
2022/09/06 04:58:16;;;;;;;0.05;0.05;;;20.10;99.90;;;;;;5010279;28;20073;-72
2022/09/06 05:00:43;;;;;;;0.22;0.22;;;20.00;99.90;;;;;;5011729;28;20885;-72
2022/09/06 05:03:09;;;;;;;0.15;0.15;;;20.10;99.90;;;;;;5012517;28;20409;-72
2022/09/06 05:05:34;;;;;;;0.22;0.20;;;20.00;99.90;;;;;;5008898;28;20052;-72
2022/09/06 05:08:00;;;;;;;0.50;0.30;;;20.00;99.90;;;;;;5011685;28;20117;-72
2022/09/06 05:10:26;;;;;;;1.08;0.73;;;20.00;99.90;;;;;;4997395;28;20049;-72
2022/09/06 05:12:53;;;;;;;0.08;0.08;;;20.00;99.90;;;;;;4992671;28;20496;-72
2022/09/06 05:15:20;;;;;;;0.10;0.10;;;19.90;99.90;;;;;;4991774;28;20050;-72
2022/09/06 05:17:46;;;;;;;0.20;0.20;;;19.80;99.90;;;;;;5001569;28;20046;-72
2022/09/06 05:20:12;;;;;;;0.50;0.50;;;19.90;99.90;;;;;;5011715;28;20148;-72
2022/09/06 05:22:38;;;;;;;0.30;0.28;;;19.70;99.90;;;;;;5001814;28;20065;-72
2022/09/06 05:25:04;;;;;;;0.63;0.60;;;19.70;99.90;;;;;;4992515;28;20038;-72
2022/09/06 05:27:30;;;;;;;0.82;0.80;;;19.70;99.90;;;;;;4992879;28;20050;-72
2022/09/06 05:29:56;;;;;;;0.10;0.10;;;19.70;99.90;;;;;;4990700;28;20038;-72
2022/09/06 05:32:21;;;;;;;0.95;0.17;;;19.80;99.90;;;;;;5004680;28;20050;-72
2022/09/06 05:34:47;;;;;;;0.38;0.30;;;19.70;99.90;;;;;;4992386;28;20061;-72
2022/09/06 05:37:12;;;;;;;0.10;0.10;;;19.70;99.90;;;;;;5006364;28;20045;-72
2022/09/06 05:39:38;;;;;;;0.30;0.30;;;19.70;99.90;;;;;;5011805;28;20045;-72
2022/09/06 05:42:05;;;;;;;0.30;0.30;;;19.60;99.90;;;;;;5009434;28;20498;-72
2022/09/06 05:44:35;;;;;;;0.25;0.25;;;19.70;99.90;;;;;;5011358;28;20088;-72
2022/09/06 05:47:01;;;;;;;0.10;0.10;;;19.60;99.90;;;;;;5007547;28;20046;-72
2022/09/06 05:49:31;;;;;;;0.43;0.43;;;19.70;99.90;;;;;;4991154;28;20053;-72
2022/09/06 05:51:56;;;;;;;0.43;0.25;;;19.70;99.90;;;;;;4990341;28;20034;-72
2022/09/06 05:54:23;;;;;;;0.17;0.17;;;19.60;99.90;;;;;;4992066;28;20045;-72
2022/09/06 05:56:48;;;;;;;0.30;0.30;;;19.60;99.90;;;;;;4991332;28;20058;-72
2022/09/06 05:59:14;;;;;;;0.40;0.40;;;19.50;99.90;;;;;;5007000;28;20471;-72
2022/09/06 06:01:49;;;;;;;0.63;0.38;;;19.60;99.90;;;;;;5004859;28;20065;-72
2022/09/06 06:04:14;;;;;;;0.28;0.28;;;19.50;99.90;;;;;;4990915;28;20042;-72
2022/09/06 06:06:40;;;;;;;0.10;0.10;;;19.50;99.90;;;;;;4991981;28;20038;-72
2022/09/06 06:09:06;;;;;;;1.15;0.45;;;19.50;99.90;;;;;;4990205;28;20092;-72
2022/09/06 06:11:31;;;;;;;0.32;0.32;;;19.50;99.90;;;;;;4990992;28;20050;-72
2022/09/06 06:13:57;;;;;;;0.20;0.20;;;19.50;99.90;;;;;;4991423;28;20651;-72
2022/09/06 06:16:24;;;;;;;0.08;0.08;;;19.40;99.90;;;;;;4996173;28;20088;-72
2022/09/06 06:18:50;;;;;;;0.32;0.32;;;19.40;99.90;;;;;;5009060;28;20034;-72
2022/09/06 06:21:22;;;;;;;0.98;0.75;;;19.40;99.90;;;;;;5008212;28;20132;-71
2022/09/06 06:23:51;;;;;;;0.93;0.93;;;19.50;99.90;;;;;;5010779;28;20501;-72
2022/09/06 06:26:17;;;;;;;0.20;0.20;;;19.40;99.90;;;;;;5008832;28;20807;-72
2022/09/06 06:28:43;;;;;;;0.20;0.20;;;19.50;99.90;;;;;;5009809;28;20052;-72
2022/09/06 06:31:10;;;;;;;0.10;0.10;;;19.40;99.90;;;;;;4994547;28;20042;-72
2022/09/06 06:33:36;;;;;;;0.90;0.63;;;19.40;99.90;;;;;;4992784;28;20039;-72
2022/09/06 06:36:12;;;;;;;10.23;2.85;;;19.50;99.90;;;;;;4996938;28;20042;-72
2022/09/06 06:38:40;;;;;;;0.30;0.30;;;19.50;99.90;;;;;;5008803;28;20088;-72
2022/09/06 06:41:08;;;;;;;0.17;0.17;;;19.50;99.90;;;;;;5010289;28;20050;-72
2022/09/06 06:43:37;;;;;;;0.13;0.13;;;19.60;99.90;;;;;;5010847;28;20056;-73
2022/09/06 06:46:13;;;;;;;0.10;0.10;;;19.60;99.90;;;;;;4994928;28;20080;-72
2022/09/06 06:48:40;;;;;;;0.82;0.82;;;19.60;99.90;;;;;;4990119;28;20046;-72
2022/09/06 06:51:13;;;;;;;0.20;0.20;;;19.50;99.90;;;;;;4990341;28;20042;-73
2022/09/06 06:53:39;;;;;;;0.17;0.10;;;19.50;99.90;;;;;;4990557;28;20105;-73
2022/09/06 06:56:16;;;;;;;0.68;0.30;;;19.60;99.90;;;;;;4987761;28;20494;-74
2022/09/06 06:58:43;;;;;;;0.47;0.47;;;19.70;99.90;;;;;;4991238;28;20054;-73
2022/09/06 07:01:09;;;;;;;0.35;0.35;;;19.80;99.90;;;;;;4988822;28;20116;-73
2022/09/06 07:03:35;;;;;;;0.17;0.17;;;19.90;99.90;;;;;;5003997;28;20045;-72
2022/09/06 07:06:02;;;;;;;0.45;0.17;;;20.00;99.90;;;;;;5010265;28;20049;-72
2022/09/06 07:08:27;;;;;;;0.17;0.10;;;20.00;99.90;;;;;;5006379;28;20050;-72
2022/09/06 07:10:53;;;;;;;0.20;0.20;;;20.10;99.90;;;;;;5009149;28;20076;-72
2022/09/06 07:13:19;;;;;;;0.30;0.30;;;20.20;99.90;;;;;;5010577;28;20038;-72
2022/09/06 07:15:44;;;;;;;1.60;1.00;;;20.30;99.90;;;;;;5007288;28;20129;-72
2022/09/06 07:18:10;;;;;;;1.88;1.30;;;20.30;99.90;;;;;;5010515;28;20042;-72
2022/09/06 07:20:35;;;;;;;1.88;0.55;;;20.40;99.90;;;;;;4997064;28;20073;-72
2022/09/06 07:23:06;;;;;;;0.10;0.10;;;20.40;99.90;;;;;;4995363;28;20045;-72
2022/09/06 07:25:32;;;;;;;0.20;0.20;;;20.40;99.90;;;;;;4997286;28;20054;-72
2022/09/06 07:28:05;;;;;;;0.60;0.52;;;20.50;99.90;;;;;;4998058;28;20159;-72
2022/09/06 07:30:36;;;;;;;;;;;20.60;99.90;;;;;;5017456;28;20130;-72
2022/09/06 07:33:05;;;;;;;0.08;0.08;;;20.60;99.90;;;;;;5016368;28;19925;-72
2022/09/06 07:35:31;;;;;;;0.10;0.10;;;20.70;99.90;;;;;;5016314;28;20081;-72
2022/09/06 07:37:59;;;;;;;2.42;1.25;;;20.70;99.90;;;;;;5010397;28;20077;-72
2022/09/06 07:40:26;;;;;;;0.98;0.95;;;20.70;99.90;;;;;;5016856;28;20100;-72
2022/09/06 07:42:55;;;;;;;2.45;1.27;;;20.60;99.90;;;;;;5016104;28;20046;-72
2022/09/06 07:45:21;;;;;;;0.15;0.15;;;20.60;99.90;;;;;;5011376;28;20057;-72
2022/09/06 07:47:59;;;;;;;0.32;0.28;;;20.60;99.90;;;;;;4996803;28;20050;-72
2022/09/06 07:50:29;;;;;;;0.25;0.25;;;20.60;99.90;;;;;;4996661;28;20053;-72
2022/09/06 07:53:02;;;;;;;0.00;0.00;;;20.70;99.90;;;;;;4996169;28;20135;-72
2022/09/06 07:55:28;;;;;;;0.08;0.08;;;20.80;99.90;;;;;;5015100;28;20075;-72
2022/09/06 07:57:53;;;;;;;0.13;0.13;;;20.80;99.90;;;;;;5015763;28;20129;-72
2022/09/06 08:00:19;;;;;;;0.00;0.00;;;20.80;99.90;;;;;;5016429;28;20052;-72
2022/09/06 08:02:45;;;;;;;0.13;0.13;;;20.70;99.90;;;;;;5013110;28;20494;-72
2022/09/06 08:05:10;;;;;;;0.20;0.20;;;20.70;99.90;;;;;;5008191;28;20049;-72
2022/09/06 08:07:36;;;;;;;0.30;0.30;;;20.80;99.90;;;;;;4996480;28;20038;-72
2022/09/06 08:10:02;;;;;;;0.10;0.10;;;20.90;99.90;;;;;;4998357;28;20046;-72
2022/09/06 08:12:28;;;;;;;0.57;0.57;;;20.90;99.90;;;;;;4995090;28;20053;-72
2022/09/06 08:14:54;;;;;;;0.35;0.35;;;21.00;99.90;;;;;;5015236;28;20046;-72
2022/09/06 08:17:20;;;;;;;0.28;0.28;;;21.00;99.90;;;;;;5015690;28;20067;-72
2022/09/06 08:19:45;;;;;;;0.00;0.00;;;20.90;99.90;;;;;;5016643;28;20041;-72
2022/09/06 08:22:11;;;;;;;1.05;0.60;;;21.10;99.90;;;;;;4996920;28;20120;-72
2022/09/06 08:24:37;;;;;;;0.10;0.10;;;21.10;99.90;;;;;;4996049;28;20504;-72
2022/09/06 08:27:06;;;;;;;0.10;0.10;;;21.20;99.90;;;;;;4995522;28;20085;-72
2022/09/06 08:29:32;;;;;;;0.22;0.15;;;21.40;99.90;;;;;;4995788;28;20041;-72
2022/09/06 08:31:57;;;;;;;0.85;0.73;;;21.40;99.90;;;;;;4998991;28;20057;-72
2022/09/06 08:34:23;;;;;;;0.00;0.00;;;21.50;99.90;;;;;;5010928;28;20502;-72
2022/09/06 08:36:49;;;;;;;0.43;0.35;;;21.50;99.90;;;;;;5013085;28;20128;-72
2022/09/06 08:39:15;;;;;;;0.10;0.10;;;21.60;99.90;;;;;;5012037;28;20100;-72
2022/09/06 08:41:50;;;;;;;0.32;0.13;;;21.70;99.90;;;;;;5007358;28;20077;-72
2022/09/06 08:44:25;;;;;;;0.00;0.00;;;21.90;99.90;;;;;;4993299;28;20065;-72
2022/09/06 08:47:01;;;;;;;0.00;0.00;;;21.90;99.90;;;;;;4992983;28;20053;-72
2022/09/06 08:49:30;;;;;;;0.32;0.32;;;22.10;99.90;;;;;;4991293;28;20046;-73
2022/09/06 08:51:59;;;;;;;0.35;0.35;;;22.20;99.90;;;;;;4993178;28;20042;-72
2022/09/06 08:54:38;;;;;;;0.20;0.20;;;22.30;99.90;;;;;;4998783;28;20046;-72
2022/09/06 08:57:42;;;;;;;0.17;0.17;;;22.50;99.90;;;;;;5010724;28;20060;-72
2022/09/06 09:00:11;;;;;;;0.10;0.10;;;23.30;99.90;;;;;;4992042;28;20054;-73
2022/09/06 09:03:06;;;;;;;0.10;0.10;;;24.00;99.90;;;;;;4998874;28;20136;-73
2022/09/06 09:05:36;;;;;;;0.98;0.50;;;24.50;99.90;;;;;;5012738;28;20038;-73
2022/09/06 09:08:34;;;;;;;0.30;0.30;;;25.00;99.90;;;;;;5010060;28;20053;-73
2022/09/06 09:11:06;;;;;;;7.80;0.82;;;25.70;99.90;;;;;;4991160;28;20503;-72
2022/09/06 09:13:50;;;;;;;0.20;0.20;;;26.30;99.20;;;;;;4992714;28;20049;-72
2022/09/06 09:16:17;;;;;;;0.15;0.15;;;26.60;98.70;;;;;;5003239;28;20058;-72
2022/09/06 09:18:50;;;;;;;1.13;0.60;;;26.90;97.90;;;;;;5012172;28;20041;-72
2022/09/06 09:21:18;;;;;;;;;;;27.20;97.40;;;;;;5002150;28;20127;-72
2022/09/06 09:23:52;;;;;;;0.00;0.00;;;27.20;97.50;;;;;;4991111;28;20277;-72
2022/09/06 09:26:19;;;;;;;3.40;0.45;;;27.40;97.50;;;;;;4992854;28;20050;-72
2022/09/06 09:29:09;;;;;;;0.43;0.28;;;27.70;97.20;;;;;;4992416;28;20125;-72
2022/09/06 09:31:36;;;;;;;0.10;0.10;;;27.60;96.80;;;;;;5007576;28;20034;-72
2022/09/06 09:34:03;;;;;;;0.52;0.17;;;27.70;96.30;;;;;;4994705;28;20128;-72
2022/09/06 09:36:30;;;;;;;0.10;0.10;;;27.80;95.70;;;;;;5011633;28;20046;-72
2022/09/06 09:38:57;;;;;;;0.52;0.30;;;28.20;95.80;;;;;;5012006;28;20050;-72
2022/09/06 09:41:32;;;;;;;0.10;0.10;;;28.40;95.60;;;;;;5011709;28;20395;-72
2022/09/06 09:44:17;;;;;;;0.75;0.52;;;28.50;95.40;;;;;;5002096;28;20046;-72
2022/09/06 09:46:43;;;;;;;0.45;0.15;;;28.90;95.70;;;;;;5005734;28;20053;-72
2022/09/06 09:49:27;;;;;;;0.17;0.17;;;28.90;95.00;;;;;;5009393;28;20046;-72
2022/09/06 09:52:08;;;;;;;0.50;0.50;;;28.90;94.50;;;;;;4992241;28;20050;-72
2022/09/06 09:54:39;;;;;;;0.13;0.13;;;29.00;95.00;;;;;;4991101;28;20552;-72
2022/09/06 09:57:12;;;;;;;5.28;0.28;;;28.90;95.10;;;;;;4991380;28;20042;-72
2022/09/06 09:59:46;;;;;;;1.08;1.08;;;29.30;94.90;;;;;;4992340;28;20411;-72
2022/09/06 10:02:40;;;;;;;0.00;0.00;;;29.20;94.50;;;;;;4990799;28;20077;-72
2022/09/06 10:05:17;;;;;;;0.30;0.30;;;29.30;93.80;;;;;;5000929;28;20073;-72
2022/09/06 10:07:54;;;;;;;0.00;0.00;;;29.30;94.30;;;;;;5011750;28;20436;-73
2022/09/06 10:10:23;;;;;;;0.10;0.10;;;29.20;93.10;;;;;;5010939;28;20502;-72
2022/09/06 10:13:07;;;;;;;0.38;0.20;;;29.30;93.90;;;;;;5011487;28;20038;-72
2022/09/06 10:15:35;;;;;;;0.20;0.20;;;29.20;94.00;;;;;;5009156;28;20052;-73
2022/09/06 10:18:01;;;;;;;0.30;0.30;;;29.20;94.10;;;;;;5007469;28;20046;-73
2022/09/06 10:20:38;;;;;;;0.10;0.10;;;29.10;93.80;;;;;;5011461;28;20057;-72
2022/09/06 10:23:13;;;;;;;0.32;0.28;;;28.80;93.00;;;;;;5009583;28;20763;-72
2022/09/06 10:25:44;;;;;;;0.13;0.10;;;28.70;93.50;;;;;;5004446;28;20085;-72
2022/09/06 10:28:18;;;;;;;0.13;0.10;;;28.60;93.40;;;;;;5010568;28;20549;-73
2022/09/06 10:30:53;;;;;;;0.43;0.43;;;28.70;93.60;;;;;;5010000;28;20498;-72
2022/09/06 10:33:37;;;;;;;0.00;0.00;;;28.60;93.60;;;;;;4988942;28;20454;-72
2022/09/06 10:36:03;;;;;;;0.20;0.20;;;28.50;94.20;;;;;;4991235;28;20046;-73
2022/09/06 10:38:56;;;;;;;0.65;0.32;;;28.40;93.90;;;;;;4990584;28;20050;-72
2022/09/06 10:41:56;;;;;;;0.10;0.10;;;28.40;94.10;;;;;;4996152;28;20117;-73
2022/09/06 10:44:39;;;;;;;0.10;0.10;;;28.40;94.00;;;;;;4991200;28;20045;-73
2022/09/06 10:47:12;;;;;;;1.85;0.28;;;28.50;94.00;;;;;;4990394;28;20517;-73
2022/09/06 10:49:45;;;;;;;0.22;0.22;;;28.30;94.00;;;;;;4991045;28;20054;-73
2022/09/06 10:52:28;;;;;;;3.50;0.38;;;28.30;94.20;;;;;;4989352;28;20051;-74
2022/09/06 10:55:02;;;;;;;0.00;0.00;;;28.20;94.40;;;;;;4990751;28;20050;-73
2022/09/06 10:57:41;;;;;;;0.00;0.00;;;28.00;94.60;;;;;;4990793;28;20491;-73
2022/09/06 11:00:12;;;;;;;0.25;0.20;;;28.10;94.30;;;;;;4988197;28;20054;-73
2022/09/06 11:02:58;;;;;;;0.25;0.25;;;28.20;94.00;;;;;;4989935;28;20114;-73
2022/09/06 11:05:29;;;;;;;0.47;0.38;;;28.40;94.90;;;;;;4990768;28;20546;-73
2022/09/06 11:08:11;;;;;;;0.20;0.17;;;28.60;94.60;;;;;;5009622;28;20129;-73
2022/09/06 11:10:42;;;;;;;0.43;0.28;;;28.70;93.90;;;;;;5010630;28;20046;-74
2022/09/06 11:13:15;;;;;;;0.00;0.00;;;28.90;94.10;;;;;;4990843;28;20057;-73
2022/09/06 11:16:12;;;;;;;2.28;1.70;;;29.00;93.80;;;;;;4990897;28;20113;-73
2022/09/06 11:18:46;;;;;;;0.93;0.47;;;28.90;93.70;;;;;;4990757;28;20142;-73
2022/09/06 11:21:17;;;;;;;0.05;0.05;;;29.10;93.30;;;;;;5002995;28;20042;-73
2022/09/06 11:23:47;;;;;;;0.00;0.00;;;29.30;93.10;;;;;;5010006;28;20776;-74
2022/09/06 11:26:30;;;;;;;0.10;0.10;;;29.40;93.10;;;;;;5010618;28;20440;-74
2022/09/06 11:28:57;;;;;;;;;;;29.50;93.40;;;;;;5008113;28;20042;-74
2022/09/06 11:31:32;;;;;;;0.55;0.22;;;29.60;93.80;;;;;;5009328;28;19921;-74
2022/09/06 11:34:10;;;;;;;0.25;0.25;;;29.50;92.30;;;;;;5009346;28;20448;-73
2022/09/06 11:36:37;;;;;;;0.05;0.00;;;29.60;93.00;;;;;;5008078;28;20481;-74
2022/09/06 11:39:06;;;;;;;0.00;0.00;;;29.70;92.70;;;;;;5010378;28;20132;-74
2022/09/06 11:41:39;;;;;;;0.93;0.80;;;29.80;92.60;;;;;;5010010;28;20398;-75
2022/09/06 11:44:09;;;;;;;0.10;0.10;;;30.00;92.40;;;;;;5007312;28;20050;-74
2022/09/06 11:46:34;;;;;;;0.08;0.05;;;30.00;92.40;;;;;;5010318;28;20048;-73
2022/09/06 11:49:26;;;;;;;0.28;0.25;;;30.00;92.30;;;;;;5006440;28;20401;-74
2022/09/06 11:51:52;;;;;;;0.00;0.00;;;30.30;92.20;;;;;;4989520;28;20042;-74
2022/09/06 11:54:23;;;;;;;1.08;0.70;;;30.30;92.40;;;;;;4989317;28;20055;-74
2022/09/06 11:57:10;;;;;;;0.10;0.10;;;29.90;91.80;;;;;;4988660;28;20143;-73
2022/09/06 11:59:44;;;;;;;0.00;0.00;;;29.90;91.50;;;;;;4990416;28;20059;-74
2022/09/06 12:02:35;;;;;;;0.30;0.30;;;30.40;91.90;;;;;;4990097;28;20057;-74
2022/09/06 12:05:02;;;;;;;0.10;0.10;;;30.60;91.90;;;;;;4988809;28;20125;-73
2022/09/06 12:07:32;;;;;;;0.15;0.10;;;30.70;91.30;;;;;;4992834;28;20050;-73
2022/09/06 12:10:21;;;;;;;0.00;0.00;;;30.90;91.50;;;;;;4993190;28;20042;-74
2022/09/06 12:12:51;;;;;;;0.43;0.20;;;30.70;91.40;;;;;;4992121;28;20474;-73
2022/09/06 12:15:24;;;;;;;0.00;0.00;;;30.90;91.60;;;;;;5012012;28;20044;-74
2022/09/06 12:17:49;;;;;;;0.30;0.30;;;30.60;91.40;;;;;;5013054;28;20042;-73
2022/09/06 12:20:47;;;;;;;0.25;0.25;;;30.30;92.00;;;;;;5011753;28;20064;-73
2022/09/06 12:23:34;;;;;;;0.10;0.10;;;30.60;92.60;;;;;;4992623;28;20062;-73
2022/09/06 12:26:00;;;;;;;0.05;0.05;;;30.20;92.10;;;;;;4992118;28;20418;-75
2022/09/06 12:28:33;;;;;;;0.03;0.03;;;29.60;92.40;;;;;;4993708;28;20061;-74
2022/09/06 12:30:59;;;;;;;0.20;0.20;;;29.30;92.70;;;;;;4994938;28;20440;-73
2022/09/06 12:33:35;;;;;;;0.00;0.00;;;29.10;92.90;;;;;;4997846;28;20050;-73
2022/09/06 12:36:14;;;;;;;0.00;0.00;;;29.00;93.10;;;;;;4993469;28;20097;-73
2022/09/06 12:39:03;;;;;;;0.10;0.10;;;28.70;93.10;;;;;;4993283;28;20053;-73
2022/09/06 12:41:35;;;;;;;0.65;0.17;;;28.50;93.70;;;;;;4993644;28;20038;-73
2022/09/06 12:44:04;;;;;;;0.10;0.10;;;28.90;93.50;;;;;;4993255;28;20438;-73
2022/09/06 12:46:31;;;;;;;0.10;0.10;;;29.00;93.50;;;;;;4994126;28;20134;-73
2022/09/06 12:49:08;;;;;;;0.00;0.00;;;29.60;93.40;;;;;;5011619;28;20394;-73
2022/09/06 12:51:35;;;;;;;0.10;0.10;;;29.50;92.80;;;;;;5008914;28;22502;-73
2022/09/06 12:54:25;;;;;;;0.10;0.05;;;29.60;92.90;;;;;;5012573;28;20076;-73
2022/09/06 12:56:52;;;;;;;0.60;0.60;;;30.10;92.70;;;;;;5011499;28;20056;-74
2022/09/06 12:59:20;;;;;;;0.10;0.10;;;30.30;91.80;;;;;;5010808;28;20073;-73
2022/09/06 13:01:49;;;;;;;0.05;0.05;;;30.50;92.10;;;;;;5002377;28;20100;-73
2022/09/06 13:04:50;;;;;;;0.05;0.05;;;30.70;91.80;;;;;;4993033;28;20050;-74
2022/09/06 13:07:17;;;;;;;0.00;0.00;;;31.20;91.80;;;;;;4988743;28;20418;-75